Time;durP1;ratioP1;P1;durP2;ratioP2;P2;SDS_P1;SDS_P2;PMS_P1;PMS_P2;Temp;Humidity;BMP_temperature;BMP_pressure;BME280_temperature;BME280_humidity;BME280_pressure;Samples;Min_cycle;Max_cycle;Signal;HPM_P1;HPM_P2
2022/09/02 00:00:59;;;;;;;11.25;4.43;;;512.70;2380.80;;;;;;5071250;28;20009;-73
2022/09/02 00:03:34;;;;;;;7.05;4.45;;;512.80;2380.80;;;;;;5066376;28;20067;-74
2022/09/02 00:06:01;;;;;;;7.53;5.00;;;512.80;2380.80;;;;;;5065155;28;20017;-73
2022/09/02 00:08:27;;;;;;;9.70;4.25;;;512.80;2380.80;;;;;;5072573;28;20124;-73
2022/09/02 00:10:53;;;;;;;6.18;4.13;;;512.80;2380.80;;;;;;5071205;28;20017;-73
2022/09/02 00:13:20;;;;;;;7.30;4.35;;;512.70;2380.80;;;;;;5071012;28;20031;-73
2022/09/02 00:15:47;;;;;;;6.45;4.13;;;512.70;2380.80;;;;;;5071005;28;20032;-73
2022/09/02 00:18:13;;;;;;;6.13;4.63;;;512.70;2380.80;;;;;;5071444;28;20028;-73
2022/09/02 00:20:41;;;;;;;13.43;4.53;;;512.70;2380.80;;;;;;5071286;28;20424;-73
2022/09/02 00:23:08;;;;;;;10.40;4.43;;;512.60;2380.80;;;;;;5071059;28;20081;-75
2022/09/02 00:25:35;;;;;;;8.05;4.15;;;512.70;2380.80;;;;;;5070899;28;20458;-73
2022/09/02 00:28:01;;;;;;;8.27;4.45;;;512.70;2380.80;;;;;;5068572;28;20036;-74
2022/09/02 00:30:27;;;;;;;7.38;4.22;;;512.70;2380.80;;;;;;5070766;28;20017;-74
2022/09/02 00:32:54;;;;;;;20.38;5.07;;;512.50;2380.80;;;;;;5071112;28;20021;-73
2022/09/02 00:35:19;;;;;;;7.10;4.63;;;512.30;2380.80;;;;;;5070845;28;20092;-72
2022/09/02 00:37:45;;;;;;;13.13;4.82;;;512.50;2380.80;;;;;;5071255;28;20158;-75
2022/09/02 00:40:12;;;;;;;13.55;4.57;;;512.30;2380.80;;;;;;5073775;28;20016;-73
2022/09/02 00:42:39;;;;;;;7.88;4.05;;;512.20;2380.80;;;;;;5073601;28;20021;-73
2022/09/02 00:45:07;;;;;;;8.32;4.53;;;512.20;2380.80;;;;;;5070762;28;20017;-72
2022/09/02 00:47:33;;;;;;;8.25;4.15;;;512.20;2380.80;;;;;;5094510;28;20443;-74
2022/09/02 00:49:59;;;;;;;11.77;4.97;;;512.10;2380.80;;;;;;5072445;28;20048;-73
2022/09/02 00:52:44;;;;;;;10.40;4.38;;;512.20;2380.80;;;;;;5069106;28;20486;-74
2022/09/02 00:55:18;;;;;;;7.93;4.50;;;512.00;2380.80;;;;;;5069612;28;20024;-72
2022/09/02 00:57:55;;;;;;;10.05;4.43;;;512.10;2380.80;;;;;;5068259;28;20465;-74
2022/09/02 01:00:32;;;;;;;7.80;4.63;;;512.30;2380.80;;;;;;5069327;28;20499;-75
2022/09/02 01:03:02;;;;;;;8.05;4.35;;;512.00;2380.80;;;;;;5070739;28;20414;-73
2022/09/02 01:05:32;;;;;;;12.30;5.72;;;512.00;2380.80;;;;;;5071514;28;20039;-74
2022/09/02 01:07:58;;;;;;;7.47;4.78;;;512.00;2380.80;;;;;;5077193;28;20478;-73
2022/09/02 01:10:29;;;;;;;8.52;4.43;;;512.00;2380.80;;;;;;5077099;28;20048;-73
2022/09/02 01:12:56;;;;;;;13.00;5.30;;;512.10;2380.80;;;;;;5074075;28;20027;-73
2022/09/02 01:15:23;;;;;;;8.10;4.38;;;512.10;2380.80;;;;;;5071663;28;20046;-74
2022/09/02 01:17:50;;;;;;;8.02;4.53;;;512.20;2380.80;;;;;;5076615;28;20509;-75
2022/09/02 01:20:20;;;;;;;8.20;4.18;;;512.20;2380.80;;;;;;5075285;28;20029;-73
2022/09/02 01:22:47;;;;;;;7.53;4.38;;;512.30;2380.80;;;;;;5071835;28;20025;-73
2022/09/02 01:25:22;;;;;;;7.07;4.70;;;512.30;2380.80;;;;;;5073090;28;20028;-72
2022/09/02 01:27:49;;;;;;;8.05;5.22;;;512.20;2380.80;;;;;;5072054;28;20120;-73
2022/09/02 01:30:20;;;;;;;8.38;5.22;;;512.10;2380.80;;;;;;5072096;28;20384;-73
2022/09/02 01:32:46;;;;;;;7.75;4.43;;;512.20;2380.80;;;;;;5075801;28;20023;-74
2022/09/02 01:35:12;;;;;;;10.98;4.93;;;512.20;2380.80;;;;;;5074013;28;20366;-77
2022/09/02 01:37:38;;;;;;;15.40;5.20;;;512.00;2380.80;;;;;;5072942;28;20025;-73
2022/09/02 01:40:06;;;;;;;8.45;4.97;;;512.00;2380.80;;;;;;5071049;28;20017;-72
2022/09/02 01:42:32;;;;;;;11.93;5.90;;;487.30;2380.80;;;;;;5074038;28;20024;-74
2022/09/02 01:44:59;;;;;;;11.27;5.68;;;487.30;2380.80;;;;;;5073686;28;20381;-74
2022/09/02 01:47:26;;;;;;;13.07;5.10;;;487.30;2380.80;;;;;;5073748;28;20042;-73
2022/09/02 01:49:53;;;;;;;8.60;5.18;;;487.20;2380.80;;;;;;5073884;28;20397;-73
2022/09/02 01:52:21;;;;;;;15.57;5.20;;;487.10;2380.80;;;;;;5074170;28;20023;-73
2022/09/02 01:54:47;;;;;;;8.65;4.05;;;487.30;2380.80;;;;;;5071326;28;20035;-73
2022/09/02 01:57:13;;;;;;;12.18;4.78;;;487.30;2380.80;;;;;;5071443;28;20482;-74
2022/09/02 01:59:40;;;;;;;8.20;4.25;;;487.20;2380.80;;;;;;5076450;28;20461;-73
2022/09/02 02:02:06;;;;;;;9.43;4.25;;;487.10;2380.80;;;;;;5071515;28;20020;-74
2022/09/02 02:04:32;;;;;;;9.88;4.43;;;487.10;2380.80;;;;;;5078232;28;20146;-73
2022/09/02 02:06:58;;;;;;;9.45;4.35;;;487.10;2380.80;;;;;;5097491;28;20043;-73
2022/09/02 02:09:25;;;;;;;5.43;4.32;;;487.00;2380.80;;;;;;5073288;28;20044;-73
2022/09/02 02:11:51;;;;;;;8.48;4.03;;;487.10;2380.80;;;;;;5077512;28;20016;-74
2022/09/02 02:14:17;;;;;;;8.73;3.95;;;487.00;2380.80;;;;;;5077220;28;20470;-73
2022/09/02 02:16:43;;;;;;;8.65;4.45;;;486.90;2380.80;;;;;;5074092;28;20075;-73
2022/09/02 02:19:09;;;;;;;9.02;4.53;;;486.80;2380.80;;;;;;5075625;28;20008;-73
2022/09/02 02:21:35;;;;;;;10.50;4.60;;;486.70;2380.80;;;;;;5074827;28;20099;-73
2022/09/02 02:24:01;;;;;;;9.77;3.90;;;486.50;2380.80;;;;;;5075840;28;20549;-72
2022/09/02 02:26:28;;;;;;;9.68;4.35;;;486.50;2380.80;;;;;;5070530;28;20016;-72
2022/09/02 02:28:54;;;;;;;7.78;4.07;;;486.50;2380.80;;;;;;5075531;28;20034;-73
2022/09/02 02:31:20;;;;;;;8.77;4.57;;;486.50;2380.80;;;;;;5075894;28;20473;-74
2022/09/02 02:33:46;;;;;;;7.32;4.30;;;486.40;2380.80;;;;;;5075124;28;20046;-73
2022/09/02 02:36:12;;;;;;;10.80;4.22;;;461.70;2380.80;;;;;;5075707;28;20023;-73
2022/09/02 02:38:39;;;;;;;12.38;4.55;;;461.60;2380.80;;;;;;5072952;28;20024;-74
2022/09/02 02:41:06;;;;;;;8.60;4.75;;;461.50;2380.80;;;;;;5072453;28;20088;-72
2022/09/02 02:43:33;;;;;;;7.68;4.13;;;461.50;2380.80;;;;;;5072740;28;20374;-74
2022/09/02 02:45:59;;;;;;;14.32;4.20;;;461.60;2380.80;;;;;;5072553;28;20755;-73
2022/09/02 02:48:25;;;;;;;10.05;4.35;;;461.50;2380.80;;;;;;5072328;28;20032;-74
2022/09/02 02:50:51;;;;;;;11.38;4.35;;;461.50;2380.80;;;;;;5075243;28;20021;-74
2022/09/02 02:53:16;;;;;;;14.05;4.18;;;461.30;2380.80;;;;;;5075422;28;20599;-73
2022/09/02 02:55:43;;;;;;;6.90;3.63;;;461.20;2380.80;;;;;;5101739;28;20107;-73
2022/09/02 02:58:09;;;;;;;9.60;3.80;;;461.10;2380.80;;;;;;5069797;28;20025;-73
2022/09/02 03:00:35;;;;;;;9.55;3.60;;;461.00;2380.80;;;;;;5072161;28;20025;-73
2022/09/02 03:03:07;;;;;;;8.48;4.50;;;461.00;2380.80;;;;;;5075010;28;20533;-74
2022/09/02 03:05:36;;;;;;;7.32;4.10;;;461.00;2380.80;;;;;;5073028;28;20026;-73
2022/09/02 03:08:03;;;;;;;7.65;3.63;;;460.80;2380.80;;;;;;5071984;28;20449;-73
2022/09/02 03:10:31;;;;;;;16.35;4.07;;;460.80;2380.80;;;;;;5070142;28;20069;-73
2022/09/02 03:13:01;;;;;;;7.63;3.72;;;436.10;2355.20;;;;;;5073540;28;20016;-72
2022/09/02 03:15:27;;;;;;;7.15;4.05;;;435.90;2355.20;;;;;;5071869;28;20036;-73
2022/09/02 03:17:55;;;;;;;10.07;3.35;;;435.80;2355.20;;;;;;5073504;28;20048;-73
2022/09/02 03:20:22;;;;;;;8.63;4.28;;;435.80;2355.20;;;;;;5071958;28;20027;-74
2022/09/02 03:22:50;;;;;;;8.52;3.95;;;435.90;2355.20;;;;;;5076243;28;20016;-74
2022/09/02 03:25:19;;;;;;;6.93;3.80;;;435.80;2355.20;;;;;;5073425;28;20027;-72
2022/09/02 03:27:46;;;;;;;5.78;3.35;;;435.90;2355.20;;;;;;5071945;28;20039;-73
2022/09/02 03:30:17;;;;;;;8.27;4.55;;;435.90;2355.20;;;;;;5074383;28;20016;-73
2022/09/02 03:32:42;;;;;;;8.15;3.95;;;435.90;2355.20;;;;;;5070490;28;20021;-73
2022/09/02 03:35:12;;;;;;;7.80;3.55;;;435.90;2355.20;;;;;;5071502;28;20031;-72
2022/09/02 03:37:38;;;;;;;7.15;3.72;;;435.80;2355.20;;;;;;5071443;28;20020;-73
2022/09/02 03:40:10;;;;;;;10.63;3.85;;;435.80;2355.20;;;;;;5071772;28;20531;-73
2022/09/02 03:42:37;;;;;;;5.25;3.53;;;435.80;2355.20;;;;;;5067719;28;20021;-73
2022/09/02 03:45:05;;;;;;;6.22;3.60;;;435.80;2355.20;;;;;;5070914;28;20035;-74
2022/09/02 03:47:31;;;;;;;11.02;3.72;;;435.80;2355.20;;;;;;5092576;28;20116;-73
2022/09/02 03:49:57;;;;;;;6.80;3.20;;;435.80;2355.20;;;;;;5071664;28;20104;-73
2022/09/02 03:52:23;;;;;;;6.65;3.35;;;435.80;2355.20;;;;;;5074091;28;20473;-74
2022/09/02 03:54:49;;;;;;;8.35;3.78;;;435.80;2355.20;;;;;;5077601;28;20039;-73
2022/09/02 03:57:15;;;;;;;6.97;3.55;;;435.80;2355.20;;;;;;5072321;28;20382;-73
2022/09/02 03:59:41;;;;;;;7.85;3.58;;;435.80;2355.20;;;;;;5069364;28;20033;-73
2022/09/02 04:02:07;;;;;;;9.48;3.50;;;435.90;2355.20;;;;;;5071401;28;20029;-73
2022/09/02 04:04:33;;;;;;;5.72;3.55;;;435.90;2355.20;;;;;;5074020;28;20016;-73
2022/09/02 04:06:59;;;;;;;8.52;4.03;;;435.90;2355.20;;;;;;5071248;28;20063;-74
2022/09/02 04:09:25;;;;;;;11.57;4.57;;;436.10;2355.20;;;;;;5069793;28;20113;-73
2022/09/02 04:11:51;;;;;;;12.65;3.60;;;436.10;2355.20;;;;;;5076753;28;20031;-73
2022/09/02 04:14:17;;;;;;;10.68;3.80;;;435.90;2355.20;;;;;;5071072;28;20016;-73
2022/09/02 04:16:42;;;;;;;5.00;3.50;;;435.80;2355.20;;;;;;5069815;28;20181;-74
2022/09/02 04:19:08;;;;;;;9.15;3.63;;;435.80;2355.20;;;;;;5076293;28;20377;-73
2022/09/02 04:21:37;;;;;;;6.40;3.15;;;435.70;2355.20;;;;;;5071259;28;20030;-74
2022/09/02 04:24:04;;;;;;;15.80;4.45;;;435.70;2355.20;;;;;;5071011;28;20051;-73
2022/09/02 04:26:30;;;;;;;5.97;3.30;;;435.80;2355.20;;;;;;5073651;28;20602;-74
2022/09/02 04:28:56;;;;;;;6.65;3.65;;;435.60;2355.20;;;;;;5069778;28;20055;-73
2022/09/02 04:31:24;;;;;;;6.50;3.40;;;435.60;2355.20;;;;;;5073786;28;20067;-73
2022/09/02 04:33:51;;;;;;;6.30;3.85;;;435.60;2355.20;;;;;;5071182;28;20021;-74
2022/09/02 04:36:18;;;;;;;6.53;3.35;;;435.50;2355.20;;;;;;5076649;28;20012;-73
2022/09/02 04:38:45;;;;;;;8.90;3.63;;;435.40;2355.20;;;;;;5071068;28;20042;-73
2022/09/02 04:41:17;;;;;;;7.70;3.55;;;435.30;2355.20;;;;;;5074879;28;20055;-72
2022/09/02 04:43:43;;;;;;;9.10;3.90;;;;;;;;;;5077960;28;20048;-73
2022/09/02 04:46:12;;;;;;;7.82;3.42;;;410.30;2355.20;;;;;;5077447;28;20040;-73
2022/09/02 04:48:38;;;;;;;6.90;3.65;;;410.30;2355.20;;;;;;5074750;28;20028;-74
2022/09/02 04:51:25;;;;;;;6.10;3.33;;;410.20;2355.20;;;;;;5077687;28;20421;-73
2022/09/02 04:53:52;;;;;;;6.03;3.17;;;410.20;2355.20;;;;;;5076893;28;20013;-75
2022/09/02 04:56:24;;;;;;;7.05;3.10;;;410.20;2355.20;;;;;;5080676;28;20035;-73
2022/09/02 04:58:51;;;;;;;6.85;3.42;;;410.00;2355.20;;;;;;5083163;28;20474;-74
2022/09/02 05:01:20;;;;;;;6.07;3.05;;;410.00;2355.20;;;;;;5077656;28;20031;-75
2022/09/02 05:03:47;;;;;;;8.27;3.20;;;410.00;2355.20;;;;;;5074578;28;20020;-75
2022/09/02 05:06:16;;;;;;;13.57;3.05;;;410.00;2355.20;;;;;;5074269;28;20023;-75
2022/09/02 05:08:43;;;;;;;6.82;3.40;;;410.00;2355.20;;;;;;5074555;28;20040;-74
2022/09/02 05:11:12;;;;;;;7.50;3.40;;;410.00;2355.20;;;;;;5074357;28;20020;-75
2022/09/02 05:13:39;;;;;;;7.03;2.88;;;410.10;2355.20;;;;;;5071279;28;20108;-75
2022/09/02 05:16:05;;;;;;;5.63;3.00;;;410.10;2355.20;;;;;;5073968;28;20063;-73
2022/09/02 05:18:32;;;;;;;5.05;3.03;;;409.90;2355.20;;;;;;5076774;28;20028;-73
2022/09/02 05:20:58;;;;;;;12.25;3.78;;;409.80;2355.20;;;;;;5073599;28;20466;-75
2022/09/02 05:23:23;;;;;;;9.88;3.70;;;409.80;2355.20;;;;;;5092918;28;20020;-74
2022/09/02 05:25:49;;;;;;;9.77;3.65;;;409.90;2355.20;;;;;;5095445;28;20030;-76
2022/09/02 05:28:15;;;;;;;11.02;3.40;;;409.90;2355.20;;;;;;5093418;28;20469;-73
2022/09/02 05:30:41;;;;;;;11.20;3.33;;;410.00;2355.20;;;;;;5093199;28;20494;-73
2022/09/02 05:33:08;;;;;;;10.73;3.95;;;409.90;2355.20;;;;;;5080786;28;20442;-76
2022/09/02 05:35:41;;;;;;;8.52;3.72;;;409.90;2355.20;;;;;;5094990;28;20035;-73
2022/09/02 05:38:07;;;;;;;11.77;3.55;;;410.00;2355.20;;;;;;5089810;28;20393;-74
2022/09/02 05:40:35;;;;;;;6.93;3.03;;;409.80;2355.20;;;;;;5094943;28;20024;-74
2022/09/02 05:43:01;;;;;;;10.40;3.05;;;409.80;2355.20;;;;;;5075553;28;20427;-74
2022/09/02 05:45:26;;;;;;;5.50;3.03;;;409.80;2355.20;;;;;;5073430;28;20033;-73
2022/09/02 05:47:52;;;;;;;9.48;3.33;;;409.70;2355.20;;;;;;5080273;28;20067;-75
2022/09/02 05:50:19;;;;;;;6.50;3.05;;;409.70;2355.20;;;;;;5093703;28;20027;-76
2022/09/02 05:52:48;;;;;;;6.57;3.47;;;409.80;2355.20;;;;;;5081390;28;20031;-73
2022/09/02 05:55:14;;;;;;;4.90;3.03;;;409.80;2355.20;;;;;;5076345;28;20028;-74
2022/09/02 05:57:40;;;;;;;8.70;2.85;;;409.90;2355.20;;;;;;5083366;28;20061;-74
2022/09/02 06:00:07;;;;;;;6.93;2.78;;;409.80;2355.20;;;;;;5073350;28;20048;-75
2022/09/02 06:02:32;;;;;;;7.15;2.80;;;409.80;2355.20;;;;;;5078358;28;20561;-73
2022/09/02 06:04:58;;;;;;;4.97;2.90;;;409.90;2355.20;;;;;;5094494;28;20095;-75
2022/09/02 06:07:25;;;;;;;16.85;3.70;;;409.90;2355.20;;;;;;5083081;28;20086;-74
2022/09/02 06:09:52;;;;;;;8.80;3.10;;;410.00;2355.20;;;;;;5073629;28;20059;-75
2022/09/02 06:12:19;;;;;;;7.80;3.38;;;410.00;2355.20;;;;;;5074827;28;20513;-74
2022/09/02 06:14:46;;;;;;;6.88;3.20;;;410.20;2355.20;;;;;;5088035;28;20071;-76
2022/09/02 06:17:13;;;;;;;6.88;3.58;;;410.10;2355.20;;;;;;5092556;28;20052;-75
2022/09/02 06:19:39;;;;;;;6.25;2.88;;;410.10;2355.20;;;;;;5093722;28;20047;-75
2022/09/02 06:22:05;;;;;;;6.40;3.22;;;410.20;2355.20;;;;;;5092708;28;20055;-75
2022/09/02 06:24:31;;;;;;;5.70;3.28;;;410.20;2355.20;;;;;;5094194;28;20025;-76
2022/09/02 06:26:58;;;;;;;5.95;3.65;;;410.30;2355.20;;;;;;5093720;28;20036;-74
2022/09/02 06:29:25;;;;;;;5.68;3.30;;;410.20;2355.20;;;;;;5093908;28;20477;-76
2022/09/02 06:31:51;;;;;;;7.22;2.97;;;410.00;2355.20;;;;;;5094185;28;20121;-75
2022/09/02 06:34:20;;;;;;;7.05;3.20;;;410.20;2355.20;;;;;;5093727;28;20017;-78
2022/09/02 06:36:47;;;;;;;9.02;3.40;;;410.20;2355.20;;;;;;5093850;28;20028;-74
2022/09/02 06:39:15;;;;;;;6.45;3.17;;;410.00;2355.20;;;;;;5093674;28;20023;-75
2022/09/02 06:41:43;;;;;;;5.57;3.55;;;410.20;2355.20;;;;;;5093467;28;20028;-74
2022/09/02 06:44:10;;;;;;;6.93;3.28;;;409.90;2355.20;;;;;;5075064;28;20039;-74
2022/09/02 06:46:39;;;;;;;5.57;3.17;;;410.40;2355.20;;;;;;5071102;28;20025;-74
2022/09/02 06:49:07;;;;;;;4.85;3.15;;;410.20;2355.20;;;;;;5071152;28;20032;-75
2022/09/02 06:51:41;;;;;;;6.55;3.50;;;410.00;2355.20;;;;;;5070879;28;20170;-76
2022/09/02 06:54:10;;;;;;;7.38;3.50;;;409.90;2355.20;;;;;;5070998;28;20020;-76
2022/09/02 06:56:35;;;;;;;7.05;4.38;;;409.90;2355.20;;;;;;5073395;28;20083;-77
2022/09/02 06:59:02;;;;;;;8.15;5.55;;;410.10;2355.20;;;;;;5072511;28;20483;-75
2022/09/02 07:01:30;;;;;;;12.65;7.68;;;410.00;2355.20;;;;;;5072439;28;20064;-78
2022/09/02 07:06:45;;;;;;;23.95;10.35;;;410.20;2355.20;;;;;;5071714;28;20067;-76
2022/09/02 07:09:14;;;;;;;14.02;8.55;;;410.30;2355.20;;;;;;5074950;28;20024;-75
2022/09/02 07:11:40;;;;;;;12.45;8.60;;;410.30;2355.20;;;;;;5075222;28;21028;-74
2022/09/02 07:14:06;;;;;;;23.38;10.52;;;410.20;2355.20;;;;;;5072101;28;20543;-76
2022/09/02 07:16:35;;;;;;;13.45;8.70;;;410.20;2355.20;;;;;;5074621;28;20068;-75
2022/09/02 07:19:01;;;;;;;12.10;7.38;;;410.20;2355.20;;;;;;5082415;28;20024;-75
2022/09/02 07:21:30;;;;;;;12.90;7.32;;;410.20;2355.20;;;;;;5071991;28;20021;-76
2022/09/02 07:24:00;;;;;;;8.13;4.88;;;410.20;2355.20;;;;;;5069816;28;20381;-77
2022/09/02 07:26:27;;;;;;;15.82;5.38;;;410.30;2355.20;;;;;;5073219;28;20483;-74
2022/09/02 07:28:54;;;;;;;9.75;3.90;;;410.30;2355.20;;;;;;5092932;28;20119;-75
2022/09/02 07:31:22;;;;;;;6.00;3.70;;;410.20;2355.20;;;;;;5092571;28;20347;-74
2022/09/02 07:33:47;;;;;;;5.68;2.85;;;410.30;2355.20;;;;;;5091639;28;20130;-74
2022/09/02 07:36:14;;;;;;;8.77;3.45;;;410.50;2355.20;;;;;;5092563;28;20099;-76
2022/09/02 07:38:41;;;;;;;5.97;3.80;;;410.50;2355.20;;;;;;5092412;28;20038;-74
2022/09/02 07:41:08;;;;;;;6.82;4.55;;;410.30;2355.20;;;;;;5092852;28;20133;-74
2022/09/02 07:43:35;;;;;;;5.20;2.97;;;410.30;2355.20;;;;;;5086225;28;20420;-75
2022/09/02 07:46:01;;;;;;;5.60;3.80;;;410.30;2355.20;;;;;;5068895;28;20081;-75
2022/09/02 07:48:29;;;;;;;10.77;3.58;;;410.30;2355.20;;;;;;5074226;28;20028;-75
2022/09/02 07:50:55;;;;;;;8.00;4.22;;;410.30;2355.20;;;;;;5083435;28;20087;-75
2022/09/02 07:53:21;;;;;;;10.15;5.65;;;410.40;2355.20;;;;;;5092293;28;20035;-73
2022/09/02 07:55:47;;;;;;;8.88;5.95;;;410.50;2355.20;;;;;;5092507;28;20020;-73
2022/09/02 07:58:15;;;;;;;19.15;7.70;;;410.50;2355.20;;;;;;5092091;28;20028;-73
2022/09/02 08:00:41;;;;;;;11.15;6.72;;;410.50;2355.20;;;;;;5084799;28;20442;-73
2022/09/02 08:03:09;;;;;;;16.13;7.15;;;410.50;2355.20;;;;;;5085592;28;20108;-72
2022/09/02 08:05:35;;;;;;;12.80;6.43;;;435.20;2355.20;;;;;;5091997;28;20012;-72
2022/09/02 08:08:01;;;;;;;10.98;7.47;;;410.50;2355.20;;;;;;5092233;28;20127;-72
2022/09/02 08:10:29;;;;;;;18.83;7.75;;;410.50;2355.20;;;;;;5092103;28;20028;-73
2022/09/02 08:12:56;;;;;;;14.02;6.82;;;410.50;2355.20;;;;;;5092336;28;20024;-72
2022/09/02 08:15:24;;;;;;;9.05;5.75;;;410.50;2355.20;;;;;;5091359;28;20028;-71
2022/09/02 08:17:50;;;;;;;11.32;6.43;;;410.50;2355.20;;;;;;5091941;28;20054;-71
2022/09/02 08:20:16;;;;;;;13.57;7.20;;;410.50;2355.20;;;;;;5091870;28;20020;-72
2022/09/02 08:22:42;;;;;;;11.18;7.10;;;435.20;2355.20;;;;;;5091828;28;20027;-72
2022/09/02 08:25:09;;;;;;;10.90;5.97;;;435.20;2355.20;;;;;;5092025;28;20048;-71
2022/09/02 08:27:36;;;;;;;7.93;5.03;;;435.20;2355.20;;;;;;5091660;28;20056;-74
2022/09/02 08:30:04;;;;;;;9.45;6.60;;;435.30;2355.20;;;;;;5091880;28;20405;-73
2022/09/02 08:32:31;;;;;;;14.93;7.63;;;410.50;2355.20;;;;;;5091922;28;20509;-73
2022/09/02 08:35:01;;;;;;;11.82;7.57;;;410.50;2355.20;;;;;;5092130;28;20073;-73
2022/09/02 08:37:28;;;;;;;9.98;6.32;;;410.50;2355.20;;;;;;5074532;28;20032;-72
2022/09/02 08:39:54;;;;;;;9.32;5.28;;;435.20;2355.20;;;;;;5073984;28;20024;-75
2022/09/02 08:42:19;;;;;;;14.82;5.32;;;435.20;2355.20;;;;;;5075817;28;20028;-73
2022/09/02 08:44:46;;;;;;;5.10;4.03;;;435.30;2355.20;;;;;;5072928;28;20020;-73
2022/09/02 08:47:17;;;;;;;6.80;4.68;;;435.30;2355.20;;;;;;5070333;28;20588;-76
2022/09/02 08:49:50;;;;;;;6.97;4.05;;;435.50;2355.20;;;;;;5072963;28;20028;-76
2022/09/02 08:52:40;;;;;;;6.57;3.55;;;435.50;2355.20;;;;;;5065220;28;20036;-75
2022/09/02 08:55:13;;;;;;;5.20;3.10;;;435.50;2355.20;;;;;;5071605;28;21226;-75
2022/09/02 08:57:40;;;;;;;8.02;3.63;;;435.40;2355.20;;;;;;5072028;28;20035;-73
2022/09/02 09:00:07;;;;;;;12.45;4.30;;;435.30;2355.20;;;;;;5073625;28;20024;-77
2022/09/02 09:02:44;;;;;;;6.25;3.83;;;435.30;2355.20;;;;;;5070644;28;20020;-75
2022/09/02 09:05:34;;;;;;;6.38;3.90;;;410.50;2355.20;;;;;;5096146;28;20055;-76
2022/09/02 09:08:14;;;;;;;6.13;4.00;;;435.30;2355.20;;;;;;5073381;28;20169;-71
2022/09/02 09:11:02;;;;;;;6.65;3.65;;;435.50;2355.20;;;;;;5082285;28;20478;-75
2022/09/02 09:13:37;;;;;;;8.68;4.00;;;435.40;2355.20;;;;;;5081647;28;20123;-75
2022/09/02 09:16:18;;;;;;;9.55;4.15;;;435.40;2355.20;;;;;;5067766;28;20367;-75
2022/09/02 09:18:54;;;;;;;7.47;4.57;;;435.50;2355.20;;;;;;5081133;28;20017;-75
2022/09/02 09:21:20;;;;;;;10.15;4.25;;;435.40;2355.20;;;;;;5073875;28;20020;-74
2022/09/02 09:23:48;;;;;;;6.95;4.15;;;435.30;2355.20;;;;;;5091468;28;20027;-75
2022/09/02 09:26:22;;;;;;;5.55;4.00;;;435.30;2355.20;;;;;;5091843;28;20012;-76
2022/09/02 09:28:49;;;;;;;8.27;4.20;;;435.60;2355.20;;;;;;5081517;28;20118;-75
2022/09/02 09:31:20;;;;;;;6.68;4.43;;;435.70;2355.20;;;;;;5076879;28;20024;-75
2022/09/02 09:34:00;;;;;;;5.93;4.13;;;435.40;2355.20;;;;;;5072765;28;20505;-75
2022/09/02 09:36:48;;;;;;;9.02;4.45;;;435.40;2355.20;;;;;;5075991;28;20024;-74
2022/09/02 09:39:20;;;;;;;7.32;4.07;;;435.40;2355.20;;;;;;5094721;28;20037;-74
2022/09/02 09:41:47;;;;;;;9.55;4.22;;;435.40;2355.20;;;;;;5087282;28;20465;-75
2022/09/02 09:44:45;;;;;;;7.60;4.40;;;435.30;2355.20;;;;;;5083182;28;20028;-75
2022/09/02 09:47:13;;;;;;;8.40;4.38;;;435.30;2355.20;;;;;;5094663;28;20393;-75
2022/09/02 09:49:39;;;;;;;7.35;4.38;;;435.30;2355.20;;;;;;5093120;28;20424;-75
2022/09/02 09:52:05;;;;;;;7.22;4.32;;;435.20;2355.20;;;;;;5090018;28;20020;-73
2022/09/02 09:54:31;;;;;;;9.15;4.28;;;435.40;2355.20;;;;;;5071953;28;20074;-75
2022/09/02 09:57:19;;;;;;;10.18;4.75;;;435.50;2355.20;;;;;;5072389;28;20104;-75
2022/09/02 09:59:48;;;;;;;7.65;4.65;;;435.40;2355.20;;;;;;5071137;28;20078;-75
2022/09/02 10:02:22;;;;;;;7.15;4.57;;;435.30;2355.20;;;;;;5082722;28;20483;-74
2022/09/02 10:04:49;;;;;;;10.63;4.75;;;435.40;2355.20;;;;;;5093150;28;20028;-75
2022/09/02 10:07:34;;;;;;;7.55;4.47;;;435.30;2355.20;;;;;;5093899;28;20496;-74
2022/09/02 10:10:15;;;;;;;6.72;4.25;;;435.30;2355.20;;;;;;5092637;28;20595;-73
2022/09/02 10:12:43;;;;;;;9.27;5.15;;;435.20;2355.20;;;;;;5092645;28;20538;-74
2022/09/02 10:15:09;;;;;;;8.30;4.82;;;435.30;2355.20;;;;;;5089779;28;20166;-76
2022/09/02 10:17:46;;;;;;;9.43;5.50;;;435.30;2355.20;;;;;;5082846;28;20040;-74
2022/09/02 10:20:41;;;;;;;9.98;5.65;;;435.40;2355.20;;;;;;5082670;28;20029;-73
2022/09/02 10:23:13;;;;;;;8.00;5.10;;;435.60;2355.20;;;;;;5088291;28;20107;-73
2022/09/02 10:25:44;;;;;;;11.40;5.25;;;435.80;2355.20;;;;;;5077552;28;20107;-74
2022/09/02 10:28:22;;;;;;;10.88;4.93;;;435.60;2355.20;;;;;;5075454;28;20074;-73
2022/09/02 10:31:00;;;;;;;9.95;5.95;;;435.70;2355.20;;;;;;5083437;28;20029;-74
2022/09/02 10:33:50;;;;;;;11.20;7.72;;;435.60;2355.20;;;;;;5091872;28;20096;-73
2022/09/02 10:36:26;;;;;;;15.55;9.85;;;435.60;2355.20;;;;;;5093871;28;20024;-75
2022/09/02 10:38:52;;;;;;;16.77;10.95;;;435.80;2355.20;;;;;;5092190;28;20020;-73
2022/09/02 10:41:25;;;;;;;14.57;9.85;;;435.80;2355.20;;;;;;5093748;28;20028;-73
2022/09/02 10:44:12;;;;;;;11.35;7.75;;;435.60;2355.20;;;;;;5093554;28;20028;-73
2022/09/02 10:46:59;;;;;;;10.93;6.15;;;435.80;2355.20;;;;;;5091435;28;20037;-73
2022/09/02 10:49:43;;;;;;;;;;;435.80;2355.20;;;;;;5093926;28;20477;-72
2022/09/02 10:52:30;;;;;;;12.50;6.47;;;435.90;2355.20;;;;;;5094146;28;19911;-74
2022/09/02 10:55:15;;;;;;;8.60;5.68;;;435.80;2355.20;;;;;;5092277;28;20485;-74
2022/09/02 10:57:40;;;;;;;9.27;5.40;;;435.80;2355.20;;;;;;5067964;28;20044;-73
2022/09/02 11:00:19;;;;;;;7.40;5.85;;;435.80;2355.20;;;;;;5092217;28;20056;-73
2022/09/02 11:03:06;;;;;;;8.95;4.82;;;436.00;2355.20;;;;;;5066190;28;20027;-74
2022/09/02 11:05:53;;;;;;;6.50;4.50;;;436.10;2355.20;;;;;;5091722;28;20028;-73
2022/09/02 11:08:25;;;;;;;9.43;5.43;;;436.10;2355.20;;;;;;5093054;28;20024;-76
2022/09/02 11:11:20;;;;;;;6.90;4.68;;;436.10;2355.20;;;;;;5091867;28;20020;-73
2022/09/02 11:14:10;;;;;;;8.40;5.07;;;436.10;2355.20;;;;;;5082874;28;20028;-73
2022/09/02 11:16:47;;;;;;;7.25;5.10;;;436.00;2355.20;;;;;;5070993;28;20056;-73
2022/09/02 11:19:41;;;;;;;7.22;5.32;;;436.10;2355.20;;;;;;5074689;28;20024;-74
2022/09/02 11:22:42;;;;;;;7.15;4.80;;;435.90;2355.20;;;;;;5085133;28;20021;-77
2022/09/02 11:25:25;;;;;;;6.47;4.13;;;436.00;2355.20;;;;;;5070928;28;20474;-76
2022/09/02 11:28:30;;;;;;;8.13;5.45;;;435.90;2355.20;;;;;;5073989;28;20466;-76
2022/09/02 11:31:13;;;;;;;6.03;4.85;;;436.10;2355.20;;;;;;5071255;28;20032;-75
2022/09/02 11:33:53;;;;;;;6.50;4.72;;;436.10;2355.20;;;;;;5069133;28;20020;-76
2022/09/02 11:36:18;;;;;;;6.28;4.85;;;460.90;2380.80;;;;;;5084981;28;20486;-80
2022/09/02 11:38:58;;;;;;;7.30;4.75;;;460.90;2380.80;;;;;;5095697;28;20042;-75
2022/09/02 11:41:44;;;;;;;7.10;4.68;;;460.90;2380.80;;;;;;5086540;28;20531;-76
2022/09/02 11:45:06;;;;;;;6.77;5.20;;;436.10;2355.20;;;;;;5073352;28;20020;-75
2022/09/02 11:47:46;;;;;;;9.82;5.93;;;460.80;2380.80;;;;;;5048925;28;20301;-75
2022/09/02 11:50:34;;;;;;;8.60;5.25;;;460.90;2380.80;;;;;;5049012;28;20032;-78
2022/09/02 11:53:08;;;;;;;7.68;5.70;;;460.90;2380.80;;;;;;5033007;28;20113;-76
2022/09/02 11:55:36;;;;;;;6.80;5.10;;;460.90;2380.80;;;;;;5049257;28;20086;-75
2022/09/02 11:58:02;;;;;;;7.47;6.00;;;460.90;2380.80;;;;;;5049148;28;20037;-75
2022/09/02 12:01:07;;;;;;;8.43;5.47;;;460.80;2380.80;;;;;;5033761;28;20032;-77
2022/09/02 12:03:34;;;;;;;9.88;5.35;;;460.80;2380.80;;;;;;4993879;28;20125;-76
2022/09/02 12:06:19;;;;;;;8.88;5.07;;;436.10;2355.20;;;;;;4995677;28;20030;-75
2022/09/02 12:08:45;;;;;;;8.02;5.50;;;436.10;2355.20;;;;;;4972575;28;20130;-76
2022/09/02 12:11:37;;;;;;;7.00;4.80;;;436.10;2355.20;;;;;;4992385;28;20464;-72
2022/09/02 12:14:26;;;;;;;7.80;5.68;;;436.10;2355.20;;;;;;4995463;28;20041;-76
2022/09/02 12:17:03;;;;;;;9.23;5.35;;;460.90;2380.80;;;;;;4950760;29;20047;-78
2022/09/02 12:19:41;;;;;;;7.00;5.38;;;460.90;2380.80;;;;;;4950519;29;20521;-78
2022/09/02 12:22:15;;;;;;;5.78;4.50;;;460.80;2380.80;;;;;;4951539;29;20035;-76
2022/09/02 12:25:27;;;;;;;8.05;5.15;;;436.10;2355.20;;;;;;4939658;29;20390;-75
2022/09/02 12:28:13;;;;;;;7.63;4.88;;;460.80;2380.80;;;;;;4934566;28;20058;-75
2022/09/02 12:31:09;;;;;;;7.30;4.72;;;460.90;2380.80;;;;;;4932937;28;20124;-75
2022/09/02 12:33:52;;;;;;;6.60;4.05;;;460.90;2380.80;;;;;;4950895;28;20031;-73
2022/09/02 12:36:37;;;;;;;8.52;4.90;;;460.90;2380.80;;;;;;4938583;28;20035;-73